createdAt,value
2023-09-20T00:02:15.620Z,98876.00
2023-09-20T00:04:44.134Z,98872.80
2023-09-20T00:07:12.828Z,98873.00
2023-09-20T00:09:41.716Z,98874.40
2023-09-20T00:12:09.765Z,98873.60
2023-09-20T00:14:37.920Z,98875.60
2023-09-20T00:17:06.062Z,98879.00
2023-09-20T00:19:34.002Z,98879.60
2023-09-20T00:22:01.803Z,98881.40
2023-09-20T00:24:29.594Z,98881.40
2023-09-20T00:26:57.316Z,98878.60
2023-09-20T00:29:27.762Z,98877.00
2023-09-20T00:31:56.844Z,98874.00
2023-09-20T00:34:25.160Z,98875.00
2023-09-20T00:36:52.874Z,98879.60
2023-09-20T00:39:20.685Z,98889.00
2023-09-20T00:41:49.285Z,98884.60
2023-09-20T00:44:18.336Z,98881.60
2023-09-20T00:46:47.860Z,98888.60
2023-09-20T00:49:15.733Z,98884.60
2023-09-20T00:51:46.082Z,98882.20
2023-09-20T00:54:16.679Z,98885.00
2023-09-20T00:56:44.535Z,98887.20
2023-09-20T00:59:12.842Z,98885.40
2023-09-20T01:01:42.073Z,98885.60
2023-09-20T01:04:10.599Z,98881.00
2023-09-20T01:06:42.361Z,98883.20
2023-09-20T01:09:11.090Z,98881.00
2023-09-20T01:11:39.417Z,98879.20
2023-09-20T01:14:07.312Z,98876.60
2023-09-20T01:16:35.127Z,98881.20
2023-09-20T01:19:05.949Z,98879.60
2023-09-20T01:21:48.223Z,98882.40
2023-09-20T01:24:20.107Z,98887.00
2023-09-20T01:26:50.263Z,98885.40
2023-09-20T01:29:18.059Z,98887.00
2023-09-20T01:31:48.340Z,98885.20
2023-09-20T01:34:16.199Z,98891.40
2023-09-20T01:36:43.980Z,98892.80
2023-09-20T01:39:13.458Z,98894.40
2023-09-20T01:41:41.252Z,98893.20
2023-09-20T01:44:09.062Z,98893.80
2023-09-20T01:46:38.186Z,98892.00
2023-09-20T01:49:06.708Z,98898.60
2023-09-20T01:51:34.962Z,98895.80
2023-09-20T01:54:04.927Z,98894.80
2023-09-20T01:56:32.812Z,98902.80
2023-09-20T01:59:00.964Z,98910.00
2023-09-20T02:01:28.821Z,98906.20
2023-09-20T02:03:57.224Z,98907.40
2023-09-20T02:06:25.117Z,98909.60
2023-09-20T02:08:54.636Z,98909.80
2023-09-20T02:11:22.717Z,98909.40
2023-09-20T02:13:50.487Z,98905.20
2023-09-20T02:16:18.436Z,98901.00
2023-09-20T02:18:48.072Z,98901.60
2023-09-20T02:21:16.820Z,98897.20
2023-09-20T02:23:44.812Z,98896.00
2023-09-20T02:26:14.074Z,98898.40
2023-09-20T02:28:42.253Z,98898.40
2023-09-20T02:31:10.560Z,98899.80
2023-09-20T02:33:39.732Z,98900.00
2023-09-20T02:36:08.007Z,98901.40
2023-09-20T02:38:36.926Z,98898.20
2023-09-20T02:41:04.986Z,98898.00
2023-09-20T02:43:32.833Z,98903.00
2023-09-20T02:46:03.078Z,98906.80
2023-09-20T02:48:30.847Z,98903.60
2023-09-20T02:51:02.053Z,98902.00
2023-09-20T02:53:29.830Z,98903.60
2023-09-20T02:55:57.785Z,98907.00
2023-09-20T02:58:25.573Z,98907.60
2023-09-20T03:00:54.039Z,98909.20
2023-09-20T03:03:24.585Z,98910.40
2023-09-20T03:05:52.702Z,98911.20
2023-09-20T03:08:20.484Z,98911.20
2023-09-20T03:10:48.192Z,98911.80
2023-09-20T03:13:19.772Z,98907.00
2023-09-20T03:15:50.246Z,98909.60
2023-09-20T03:18:18.113Z,98902.60
2023-09-20T03:20:49.721Z,98907.80
2023-09-20T03:23:18.192Z,98905.00
2023-09-20T03:25:46.138Z,98912.00
2023-09-20T03:28:13.858Z,98909.40
2023-09-20T03:30:41.710Z,98910.60
2023-09-20T03:33:10.490Z,98911.00
2023-09-20T03:35:39.117Z,98907.80
2023-09-20T03:38:07.267Z,98909.80
2023-09-20T03:40:35.125Z,98906.20
2023-09-20T03:43:08.567Z,98905.60
2023-09-20T03:45:36.682Z,98904.20
2023-09-20T03:48:04.810Z,98903.80
2023-09-20T03:50:32.653Z,98902.20
2023-09-20T03:53:01.517Z,98903.80
2023-09-20T03:55:29.444Z,98905.20
2023-09-20T03:57:57.219Z,98901.40
2023-09-20T04:00:29.993Z,98904.00
2023-09-20T04:02:59.962Z,98903.80
2023-09-20T04:05:44.250Z,98902.40
2023-09-20T04:08:14.438Z,98898.00
2023-09-20T04:10:42.967Z,98902.40
2023-09-20T04:13:10.778Z,98896.60
2023-09-20T04:15:42.286Z,98897.80
2023-09-20T04:18:10.685Z,98902.20
2023-09-20T04:20:40.070Z,98906.00
2023-09-20T04:23:08.618Z,98907.40
2023-09-20T04:25:36.572Z,98903.40
2023-09-20T04:28:04.797Z,98907.60
2023-09-20T04:30:32.744Z,98908.80
2023-09-20T04:33:00.653Z,98908.20
2023-09-20T04:35:28.734Z,98911.60
2023-09-20T04:37:56.620Z,98911.80
2023-09-20T04:40:25.423Z,98916.20
2023-09-20T04:42:53.533Z,98917.80
2023-09-20T04:45:21.260Z,98910.80
2023-09-20T04:47:51.130Z,98914.80
2023-09-20T04:50:19.386Z,98921.80
2023-09-20T04:52:48.242Z,98919.60
2023-09-20T04:55:16.040Z,98915.80
2023-09-20T04:57:44.853Z,98913.80
2023-09-20T05:00:16.037Z,98916.80
2023-09-20T05:02:46.663Z,98918.00
2023-09-20T05:05:17.739Z,98914.60
2023-09-20T05:07:46.072Z,98918.40
2023-09-20T05:10:13.914Z,98926.80
2023-09-20T05:12:42.603Z,98924.20
2023-09-20T05:15:14.120Z,98929.20
2023-09-20T05:17:42.767Z,98930.20
2023-09-20T05:20:15.066Z,98937.20
2023-09-20T05:22:42.840Z,98935.60
2023-09-20T05:25:10.912Z,98944.00
2023-09-20T05:27:39.037Z,98941.60
2023-09-20T05:30:08.290Z,98943.20
2023-09-20T05:32:37.173Z,98940.40
2023-09-20T05:35:07.752Z,98948.20
2023-09-20T05:37:36.423Z,98951.80
2023-09-20T05:40:04.775Z,98947.80
2023-09-20T05:42:33.541Z,98948.40
2023-09-20T05:45:01.405Z,98955.20
2023-09-20T05:47:29.306Z,98953.40
2023-09-20T05:49:57.895Z,98948.20
2023-09-20T05:52:25.733Z,98953.40
2023-09-20T05:54:53.610Z,98944.80
2023-09-20T05:57:23.445Z,98949.40
2023-09-20T05:59:53.575Z,98944.40
2023-09-20T06:02:21.692Z,98946.40
2023-09-20T06:04:49.535Z,98946.00
2023-09-20T06:07:17.347Z,98946.40
2023-09-20T06:09:45.438Z,98947.20
2023-09-20T06:12:13.127Z,98944.60
2023-09-20T06:14:41.094Z,98948.80
2023-09-20T06:17:08.997Z,98948.40
2023-09-20T06:19:39.245Z,98954.80
2023-09-20T06:22:07.089Z,98952.40
2023-09-20T06:24:36.216Z,98959.20
2023-09-20T06:27:04.333Z,98962.40
2023-09-20T06:29:32.037Z,98955.80
2023-09-20T06:32:00.074Z,98961.20
2023-09-20T06:34:28.164Z,98960.20
2023-09-20T06:36:55.919Z,98961.00
2023-09-20T06:39:23.672Z,98964.20
2023-09-20T06:41:51.500Z,98975.20
2023-09-20T06:44:19.773Z,98973.40
2023-09-20T06:46:47.625Z,98973.00
2023-09-20T06:49:15.463Z,98978.40
2023-09-20T06:51:44.565Z,98979.20
2023-09-20T06:54:12.522Z,98975.80
2023-09-20T06:56:40.371Z,98976.80
2023-09-20T06:59:08.328Z,98975.40
2023-09-20T07:01:36.099Z,98982.20
2023-09-20T07:04:06.123Z,98985.00
2023-09-20T07:06:34.478Z,98988.60
2023-09-20T07:09:02.184Z,98986.80
2023-09-20T07:11:30.519Z,98985.60
2023-09-20T07:14:01.021Z,98986.40
2023-09-20T07:16:28.805Z,98987.20
2023-09-20T07:18:59.400Z,98995.00
2023-09-20T07:21:28.690Z,98987.40
2023-09-20T07:24:00.425Z,98996.60
2023-09-20T07:26:28.278Z,98998.20
2023-09-20T07:28:56.097Z,98989.00
2023-09-20T07:31:27.974Z,98994.60
2023-09-20T07:33:57.293Z,98995.00
2023-09-20T07:36:37.008Z,99004.40
2023-09-20T07:39:14.076Z,99002.20
2023-09-20T07:41:51.255Z,99002.20
2023-09-20T07:44:25.668Z,99003.60
2023-09-20T07:46:53.949Z,99003.60
2023-09-20T07:49:21.891Z,99004.60
2023-09-20T07:51:51.327Z,99006.40
2023-09-20T07:54:19.225Z,98999.60
2023-09-20T07:56:53.840Z,98993.80
2023-09-20T07:59:24.828Z,98998.00
2023-09-20T08:01:53.905Z,98994.20
2023-09-20T08:04:23.191Z,98992.40
2023-09-20T08:06:51.077Z,99000.20
2023-09-20T08:09:18.847Z,98992.20
2023-09-20T08:11:48.271Z,98997.00
2023-09-20T08:14:16.414Z,98998.40
2023-09-20T08:17:01.488Z,99002.40
2023-09-20T08:19:32.618Z,98998.80
2023-09-20T08:22:00.423Z,98996.60
2023-09-20T08:24:46.788Z,98992.00
2023-09-20T08:27:33.055Z,98985.80
2023-09-20T08:30:19.184Z,98987.60
2023-09-20T08:33:05.555Z,98989.60
2023-09-20T08:35:51.905Z,98991.40
2023-09-20T08:38:38.241Z,98984.40
2023-09-20T08:41:25.601Z,98987.40
2023-09-20T08:44:13.548Z,98984.80
2023-09-20T08:47:01.961Z,98983.00
2023-09-20T08:49:51.336Z,98981.00
2023-09-20T08:52:40.322Z,98977.60
2023-09-20T08:55:28.664Z,98978.20
2023-09-20T08:58:16.889Z,98978.00
2023-09-20T09:00:48.061Z,98975.40
2023-09-20T09:03:17.321Z,98967.40
2023-09-20T09:05:45.405Z,98960.80
2023-09-20T09:08:14.787Z,98959.80
2023-09-20T09:10:42.725Z,98963.40
2023-09-20T09:13:10.471Z,98964.80
2023-09-20T09:15:38.562Z,98958.80
2023-09-20T09:18:18.865Z,98962.80
2023-09-20T09:20:50.676Z,98961.60
2023-09-20T09:23:33.467Z,98957.40
2023-09-20T09:26:01.222Z,98959.80
2023-09-20T09:28:32.642Z,98962.60
2023-09-20T09:31:01.830Z,98960.60
2023-09-20T09:33:30.223Z,98962.40
2023-09-20T09:35:58.623Z,98959.60
2023-09-20T09:38:27.416Z,98959.00
2023-09-20T09:40:58.108Z,98955.20
2023-09-20T09:43:31.013Z,98948.20
2023-09-20T09:46:08.477Z,98957.60
2023-09-20T09:48:44.203Z,98948.80
2023-09-20T09:51:14.776Z,98951.20
2023-09-20T09:53:46.943Z,98952.60
2023-09-20T09:56:17.635Z,98939.20
2023-09-20T09:58:45.470Z,98941.00
2023-09-20T10:01:18.921Z,98939.40
2023-09-20T10:03:51.597Z,98937.60
2023-09-20T10:06:29.106Z,98941.00
2023-09-20T10:09:06.016Z,98937.80
2023-09-20T10:11:34.095Z,98937.40
2023-09-20T10:14:06.267Z,98941.00
2023-09-20T10:16:36.124Z,98947.00
2023-09-20T10:19:12.072Z,98939.80
2023-09-20T10:22:00.715Z,98940.60
2023-09-20T10:24:30.403Z,98934.80
2023-09-20T10:27:03.594Z,98940.40
2023-09-20T10:29:34.152Z,98933.40
2023-09-20T10:32:24.949Z,98936.00
2023-09-20T10:35:31.178Z,98929.80
2023-09-20T10:38:09.842Z,98923.20
2023-09-20T10:40:46.871Z,98916.20
2023-09-20T10:43:37.872Z,98918.40
2023-09-20T10:46:18.903Z,98919.80
2023-09-20T10:48:50.918Z,98911.60
2023-09-20T10:51:49.516Z,98913.80
2023-09-20T10:54:26.601Z,98913.20
2023-09-20T10:57:22.976Z,98909.20
2023-09-20T10:59:54.543Z,98910.80
2023-09-20T11:02:22.291Z,98903.40
2023-09-20T11:04:51.324Z,98905.60
2023-09-20T11:07:19.554Z,98892.00
2023-09-20T11:09:48.701Z,98896.00
2023-09-20T11:12:16.997Z,98894.40
2023-09-20T11:14:46.288Z,98894.80
2023-09-20T11:17:17.821Z,98887.80
2023-09-20T11:19:46.747Z,98883.80
2023-09-20T11:22:19.926Z,98888.80
2023-09-20T11:24:49.209Z,98892.80
2023-09-20T11:27:17.246Z,98891.80
2023-09-20T11:29:45.699Z,98882.20
2023-09-20T11:32:14.017Z,98872.80
2023-09-20T11:34:49.504Z,98881.20
2023-09-20T11:37:22.102Z,98872.80
2023-09-20T11:39:53.149Z,98880.40
2023-09-20T11:42:35.943Z,98874.40
2023-09-20T11:45:27.192Z,98878.20
2023-09-20T11:47:57.767Z,98872.20
2023-09-20T11:50:28.515Z,98872.60
2023-09-20T11:52:56.923Z,98871.40
2023-09-20T11:55:27.736Z,98863.00
2023-09-20T11:58:01.056Z,98861.60
2023-09-20T12:00:31.239Z,98858.00
2023-09-20T12:03:00.707Z,98862.00
2023-09-20T12:05:29.688Z,98860.00
2023-09-20T12:08:03.630Z,98850.40
2023-09-20T12:10:31.970Z,98851.40
2023-09-20T12:13:01.523Z,98851.60
2023-09-20T12:15:29.301Z,98847.80
2023-09-20T12:17:58.231Z,98848.00
2023-09-20T12:20:27.773Z,98845.80
2023-09-20T12:23:03.255Z,98844.60
2023-09-20T12:25:34.124Z,98850.80
2023-09-20T12:28:02.213Z,98847.40
2023-09-20T12:30:30.446Z,98836.20
2023-09-20T12:33:01.466Z,98837.40
2023-09-20T12:35:32.040Z,98839.20
2023-09-20T12:37:59.901Z,98845.00
2023-09-20T12:40:28.763Z,98843.80
2023-09-20T12:43:02.629Z,98837.20
2023-09-20T12:45:30.921Z,98834.00
2023-09-20T12:47:58.921Z,98837.80
2023-09-20T12:50:27.119Z,98839.00
2023-09-20T12:52:55.774Z,98829.80
2023-09-20T12:55:23.530Z,98825.60
2023-09-20T12:57:51.394Z,98823.80
2023-09-20T13:00:34.051Z,98818.20
2023-09-20T13:03:09.437Z,98820.80
2023-09-20T13:05:41.673Z,98831.00
2023-09-20T13:08:11.982Z,98826.80
2023-09-20T13:10:40.242Z,98819.60
2023-09-20T13:13:10.119Z,98821.20
2023-09-20T13:15:43.556Z,98813.40
2023-09-20T13:18:13.233Z,98811.00
2023-09-20T13:20:44.395Z,98812.80
2023-09-20T13:23:12.957Z,98810.80
2023-09-20T13:25:44.049Z,98805.00
2023-09-20T13:28:13.980Z,98807.80
2023-09-20T13:30:42.563Z,98797.60
2023-09-20T13:33:15.462Z,98800.40
2023-09-20T13:35:44.385Z,98800.20
2023-09-20T13:38:15.143Z,98796.80
2023-09-20T13:40:48.152Z,98802.20
2023-09-20T13:43:16.161Z,98793.20
2023-09-20T13:45:44.834Z,98792.00
2023-09-20T13:48:13.616Z,98794.60
2023-09-20T13:50:45.460Z,98784.20
2023-09-20T13:53:14.496Z,98795.60
2023-09-20T13:55:42.765Z,98789.20
2023-09-20T13:58:11.014Z,98785.20
2023-09-20T14:00:39.377Z,98778.20
2023-09-20T14:03:08.947Z,98777.00
2023-09-20T14:05:37.721Z,98774.40
2023-09-20T14:08:05.984Z,98773.40
2023-09-20T14:10:35.242Z,98774.40
2023-09-20T14:13:03.497Z,98768.00
2023-09-20T14:15:31.807Z,98764.80
2023-09-20T14:18:02.062Z,98761.60
2023-09-20T14:20:30.574Z,98767.80
2023-09-20T14:22:58.587Z,98766.60
2023-09-20T14:25:29.544Z,98766.00
2023-09-20T14:27:58.325Z,98758.60
2023-09-20T14:30:26.443Z,98753.80
2023-09-20T14:32:56.261Z,98757.40
2023-09-20T14:35:25.348Z,98754.40
2023-09-20T14:37:56.177Z,98756.00
2023-09-20T14:40:26.330Z,98752.80
2023-09-20T14:42:59.008Z,98752.60
2023-09-20T14:45:31.587Z,98752.60
2023-09-20T14:48:03.397Z,98746.80
2023-09-20T14:50:33.027Z,98742.00
2023-09-20T14:53:01.462Z,98741.20
2023-09-20T14:55:30.595Z,98744.60
2023-09-20T14:57:59.827Z,98745.20
2023-09-20T15:00:31.117Z,98739.60
2023-09-20T15:03:02.537Z,98732.60
2023-09-20T15:05:30.775Z,98741.20
2023-09-20T15:07:59.650Z,98734.60
2023-09-20T15:10:28.218Z,98737.60
2023-09-20T15:13:00.191Z,98731.60
2023-09-20T15:15:29.876Z,98734.20
2023-09-20T15:17:59.551Z,98743.40
2023-09-20T15:20:30.206Z,98745.00
2023-09-20T15:23:00.061Z,98747.00
2023-09-20T15:25:31.095Z,98742.00
2023-09-20T15:28:00.715Z,98738.80
2023-09-20T15:30:31.278Z,98737.00
2023-09-20T15:32:59.814Z,98738.60
2023-09-20T15:35:27.956Z,98739.20
2023-09-20T15:37:57.026Z,98740.20
2023-09-20T15:40:27.880Z,98743.80
2023-09-20T15:42:58.539Z,98740.80
2023-09-20T15:45:28.070Z,98738.20
2023-09-20T15:47:57.064Z,98736.60
2023-09-20T15:50:26.540Z,98736.80
2023-09-20T15:52:55.939Z,98737.60
2023-09-20T15:55:23.982Z,98741.20
2023-09-20T15:57:51.798Z,98737.00
2023-09-20T16:00:19.617Z,98743.60
2023-09-20T16:02:47.712Z,98741.20
2023-09-20T16:05:16.436Z,98736.80
2023-09-20T16:07:45.264Z,98742.40
2023-09-20T16:10:21.864Z,98742.00
2023-09-20T16:12:50.289Z,98746.20
2023-09-20T16:15:18.712Z,98748.00
2023-09-20T16:17:48.231Z,98749.60
2023-09-20T16:20:16.803Z,98751.40
2023-09-20T16:22:47.844Z,98749.00
2023-09-20T16:25:16.443Z,98750.20
2023-09-20T16:27:46.414Z,98746.40
2023-09-20T16:30:15.754Z,98746.80
2023-09-20T16:32:45.706Z,98749.40
2023-09-20T16:35:16.706Z,98750.20
2023-09-20T16:37:54.093Z,98752.60
2023-09-20T16:40:22.217Z,98749.40
2023-09-20T16:42:50.382Z,98749.40
2023-09-20T16:45:19.970Z,98754.40
2023-09-20T16:47:49.694Z,98753.80
2023-09-20T16:50:19.410Z,98752.20
2023-09-20T16:52:48.103Z,98749.40
2023-09-20T16:55:20.784Z,98746.80
2023-09-20T16:57:48.738Z,98746.60
2023-09-20T17:00:17.634Z,98748.80
2023-09-20T17:02:46.057Z,98748.80
2023-09-20T17:05:17.189Z,98749.40
2023-09-20T17:07:45.592Z,98752.60
2023-09-20T17:10:17.200Z,98754.60
2023-09-20T17:12:47.867Z,98755.80
2023-09-20T17:15:17.280Z,98754.80
2023-09-20T17:17:46.768Z,98754.20
2023-09-20T17:20:15.448Z,98755.00
2023-09-20T17:22:43.333Z,98760.80
2023-09-20T17:25:15.533Z,98764.60
2023-09-20T17:27:46.536Z,98767.00
2023-09-20T17:30:20.702Z,98762.80
2023-09-20T17:32:50.150Z,98760.20
2023-09-20T17:35:18.811Z,98764.60
2023-09-20T17:37:47.318Z,98766.40
2023-09-20T17:40:18.078Z,98764.60
2023-09-20T17:42:46.448Z,98765.80
2023-09-20T17:45:14.472Z,98764.00
2023-09-20T17:47:45.579Z,98768.80
2023-09-20T17:50:14.228Z,98771.60
2023-09-20T17:52:42.575Z,98768.60
2023-09-20T17:55:10.636Z,98771.40
2023-09-20T17:57:38.489Z,98774.20
2023-09-20T18:00:13.104Z,98779.60
2023-09-20T18:02:42.052Z,98781.60
2023-09-20T18:05:10.742Z,98783.60
2023-09-20T18:07:38.717Z,98781.40
2023-09-20T18:10:06.948Z,98782.60
2023-09-20T18:12:36.167Z,98774.00
2023-09-20T18:15:05.388Z,98778.80
2023-09-20T18:17:34.785Z,98779.20
2023-09-20T18:20:05.024Z,98779.40
2023-09-20T18:22:32.837Z,98781.20
2023-09-20T18:25:02.645Z,98782.20
2023-09-20T18:27:30.822Z,98785.60
2023-09-20T18:29:58.901Z,98789.80
2023-09-20T18:32:27.504Z,98789.80
2023-09-20T18:34:55.469Z,98790.00
2023-09-20T18:37:24.809Z,98786.60
2023-09-20T18:39:52.657Z,98788.00
2023-09-20T18:42:21.003Z,98789.20
2023-09-20T18:44:50.162Z,98799.20
2023-09-20T18:47:23.505Z,98796.80
2023-09-20T18:49:57.556Z,98799.40
2023-09-20T18:52:25.598Z,98802.40
2023-09-20T18:54:55.180Z,98805.00
2023-09-20T18:57:26.892Z,98801.40
2023-09-20T18:59:54.692Z,98803.20
2023-09-20T19:02:25.106Z,98795.40
2023-09-20T19:04:56.993Z,98801.20
2023-09-20T19:07:24.843Z,98803.00
2023-09-20T19:09:55.899Z,98803.60
2023-09-20T19:12:24.050Z,98806.60
2023-09-20T19:14:53.996Z,98806.60
2023-09-20T19:17:34.115Z,98801.60
2023-09-20T19:20:08.811Z,98799.20
2023-09-20T19:22:37.281Z,98798.40
2023-09-20T19:25:06.459Z,98799.80
2023-09-20T19:27:34.252Z,98795.00
2023-09-20T19:30:06.204Z,98794.20
2023-09-20T19:32:35.442Z,98793.40
2023-09-20T19:35:06.562Z,98797.20
2023-09-20T19:37:34.850Z,98799.40
2023-09-20T19:40:20.393Z,98803.40
2023-09-20T19:42:50.079Z,98800.60
2023-09-20T19:45:19.815Z,98799.40
2023-09-20T19:47:48.928Z,98789.60
2023-09-20T19:50:20.240Z,98793.00
2023-09-20T19:52:49.090Z,98797.40
2023-09-20T19:55:26.187Z,98800.60
2023-09-20T19:57:56.925Z,98797.40
2023-09-20T20:00:26.269Z,98795.20
2023-09-20T20:02:59.897Z,98795.80
2023-09-20T20:05:29.218Z,98796.20
2023-09-20T20:08:00.848Z,98796.80
2023-09-20T20:10:30.827Z,98795.40
2023-09-20T20:12:59.333Z,98797.40
2023-09-20T20:15:31.518Z,98796.40
2023-09-20T20:18:01.910Z,98794.80
2023-09-20T20:20:33.885Z,98790.00
2023-09-20T20:23:06.237Z,98793.60
2023-09-20T20:25:38.826Z,98788.00
2023-09-20T20:28:19.839Z,98787.80
2023-09-20T20:30:47.712Z,98781.60
2023-09-20T20:33:16.089Z,98785.00
2023-09-20T20:35:44.494Z,98787.60
2023-09-20T20:38:13.295Z,98778.40
2023-09-20T20:40:47.751Z,98784.40
2023-09-20T20:43:15.723Z,98783.80
2023-09-20T20:45:43.598Z,98784.20
2023-09-20T20:48:12.344Z,98776.40
2023-09-20T20:50:42.228Z,98774.00
2023-09-20T20:53:14.929Z,98777.60
2023-09-20T20:55:44.119Z,98771.80
2023-09-20T20:58:14.261Z,98774.00
2023-09-20T21:00:51.762Z,98767.60
2023-09-20T21:03:20.712Z,98769.40
2023-09-20T21:05:50.757Z,98766.20
2023-09-20T21:08:21.895Z,98770.00
2023-09-20T21:10:50.315Z,98774.60
2023-09-20T21:13:18.984Z,98769.40
2023-09-20T21:15:46.859Z,98764.80
2023-09-20T21:18:19.919Z,98763.60
2023-09-20T21:20:56.973Z,98760.80
2023-09-20T21:23:25.043Z,98761.20
2023-09-20T21:25:53.222Z,98756.40
2023-09-20T21:28:20.999Z,98757.00
2023-09-20T21:30:48.723Z,98755.80
2023-09-20T21:33:17.539Z,98752.60
2023-09-20T21:35:45.982Z,98748.40
2023-09-20T21:38:13.725Z,98750.80
2023-09-20T21:40:45.164Z,98751.40
2023-09-20T21:43:13.425Z,98751.80
2023-09-20T21:45:41.708Z,98747.40
2023-09-20T21:48:11.226Z,98748.60
2023-09-20T21:50:41.429Z,98745.00
2023-09-20T21:53:12.902Z,98740.80
2023-09-20T21:55:40.878Z,98739.60
2023-09-20T21:58:08.703Z,98734.00
2023-09-20T22:00:38.361Z,98734.40
2023-09-20T22:03:08.820Z,98736.00
2023-09-20T22:05:38.246Z,98735.20
2023-09-20T22:08:10.401Z,98732.20
2023-09-20T22:10:46.252Z,98732.60
2023-09-20T22:13:15.248Z,98729.80
2023-09-20T22:15:46.248Z,98731.60
2023-09-20T22:18:28.223Z,98730.20
2023-09-20T22:21:09.089Z,98727.40
2023-09-20T22:23:38.107Z,98728.60
2023-09-20T22:26:09.299Z,98728.00
2023-09-20T22:28:37.453Z,98725.40
2023-09-20T22:31:06.190Z,98725.40
2023-09-20T22:33:38.554Z,98722.60
2023-09-20T22:36:14.112Z,98726.80
2023-09-20T22:38:45.773Z,98724.20
2023-09-20T22:41:16.801Z,98724.00
2023-09-20T22:43:46.603Z,98725.40
2023-09-20T22:46:17.467Z,98722.20
2023-09-20T22:48:46.263Z,98720.40
2023-09-20T22:51:17.373Z,98720.20
2023-09-20T22:53:45.373Z,98713.40
2023-09-20T22:56:13.583Z,98711.80
2023-09-20T22:58:43.935Z,98710.60
2023-09-20T23:01:15.684Z,98707.80
2023-09-20T23:03:43.944Z,98704.60
2023-09-20T23:06:12.134Z,98702.40
2023-09-20T23:08:40.685Z,98704.00
2023-09-20T23:11:11.205Z,98700.80
2023-09-20T23:13:40.964Z,98699.20
2023-09-20T23:16:17.817Z,98701.20
2023-09-20T23:18:46.948Z,98695.60
2023-09-20T23:21:17.547Z,98693.40
2023-09-20T23:23:48.837Z,98698.00
2023-09-20T23:26:18.335Z,98695.60
2023-09-20T23:28:46.749Z,98698.60
2023-09-20T23:31:17.329Z,98694.00
2023-09-20T23:33:47.366Z,98694.00
2023-09-20T23:36:16.614Z,98694.00
2023-09-20T23:38:45.400Z,98695.80
2023-09-20T23:41:17.032Z,98696.00
2023-09-20T23:43:48.216Z,98693.60
2023-09-20T23:46:21.663Z,98693.20
2023-09-20T23:48:51.615Z,98687.20
2023-09-20T23:51:22.464Z,98688.20
2023-09-20T23:53:50.834Z,98683.80
2023-09-20T23:56:19.537Z,98684.40
2023-09-20T23:58:48.099Z,98683.80
